KTEB/TEB METAR and TAF weather

Enter ICAO airport designator
Station Type Date Time Source
KTEB METAR 2021/07/24 20:51 UTC NOAA

KTEB 242051Z 18006KT 10SM BKN070 OVC095 27/15 A3004 RMK AO2 SLP171 T02670150 56015


Station Type Date Time Source
KTEB Decoded METAR 2021/07/24 20:51 UTC NOAA

TETERBORO AIRPORT, NJ, United States (KTEB) 40-52N 74-03W 7M
Jul 24, 2021 - 04:51 PM EDT / 2021.07.24 2051 UTC
Wind: from the S (180 degrees) at 7 MPH (6 KT):0
Visibility: 10 mile(s):0
Sky conditions: overcast
Temperature: 80.1 F (26.7 C)
Dew Point: 59.0 F (15.0 C)
Relative Humidity: 48%
Pressure (altimeter): 30.04 in. Hg (1017 hPa)
Pressure tendency: 0.04 inches (1.5 hPa) lower than three hours ago
ob: KTEB 242051Z 18006KT 10SM BKN070 OVC095 27/15 A3004 RMK AO2 SLP171 T02670150 56015
cycle: 21

Station Type Date Time Source
KTEB TAF 2021/07/24 21:36 UTC NOAA

TAF
AMD KTEB 242034Z 2421/2524 17008KT P6SM FEW250
FM250400 20007KT P6SM SCT150 BKN250
FM250700 20006KT P6SM -SHRA BKN040
TEMPO 2509/2513 5SM SHRA BKN025
FM251300 20015KT P6SM BKN040
FM251800 21012KT P6SM VCTS BKN035CB PROB30 2519/2524 5SM -TSRA BKN025CB

Example: see airport list